Delray Beach, FL

1:05 AM EST on December 25, 2014 (GMT -0500)
Lake Ida - Garden House | Change Station
CLOSE
Current Station
Personal Weather Station
Location: Delray Beach, FL
Elevation: 0 ft
Nearby Weather Stations

Elev 0 ft 26.48 °N, 80.07 °W | Updated 14 minutes ago

Partly Cloudy
Partly Cloudy
77.0 °F
Feels Like 78 °F
N
0.0
Wind Variable Wind from SW

Today
High -- | Low -- °F
--% Chance of Precip.
Yesterday
High -- | Low -- °F
Precip. -- in
7:05 AM 5:35 PM
Waxing Crescent, 13% visible
Pressure 29.97 in
Visibility 9.0 miles
Clouds Clear
Heat Index 78 °F
Dew Point 72 °F
Humidity 84%
Rainfall 0.00 in
Snow Depth Not available.
UV 0 out of 12
Pollen 3.90 out of 12
Air Quality Not available.
Flu Activity Not available.
METAR KPMP 250553Z AUTO 18008KT 9SM CLR 26/22 A2996 RMK AO2 SLP147 60000 T02560222 10261 20250 58004

More Conditions Fewer Conditions

Pressure 29.97 in
Visibility 9.0 miles
Clouds Clear
Heat Index 78 °F
Dew Point 72 °F
Humidity 84%
Rainfall 0.00 in
Snow Depth Not available.
UV 0 out of 12
Pollen 3.90 out of 12
Air Quality Not available.
Flu Activity Not available.
METAR KPMP 250553Z AUTO 18008KT 9SM CLR 26/22 A2996 RMK AO2 SLP147 60000 T02560222 10261 20250 58004

More Conditions Fewer Conditions

Nowcast | as of 12:53 am EST on December 25, 2014

A line of showers and embedded thunderstorms will continue to move east around 25 mph from the interior areas into the East Coast Metro areas through early this morning. Any storms that do move through will be capable of producing wind gusts up to 35 mph...lightning strikes...and locally heavy rainfall. If you see lightning or hear thunder move inside until the storms have passed by.

×

10-Day Weather Forecast

Almanac

Astronomy

Dec. 25, 2014 Rise Set
Actual Time
Civil Twilight
Nautical Twilight
Astronomical Twilight
Moon
Length of Visible Light
Length of Day
Tomorrow will be .
, % of the Moon is Illuminated

Today's Extremes

State Highs State Lows

Community

WunderPhotos

Upload Photos

1,780,245 photos uploaded!

WunderBlogs® & News

Nearby

Air Quality

  Air Quality AQ Index Pollutant
Not available.

Snow Depth

Station Depth Elevation

Earthquake Activity

City Distance Mag. Time & Date
Minimum magnitude displayed is 2.5.

Coastal Water Temperatures

Place Temperature

Nearby Weather Stations